Time;durP1;ratioP1;P1;durP2;ratioP2;P2;SDS_P1;SDS_P2;PMS_P1;PMS_P2;Temp;Humidity;BMP_temperature;BMP_pressure;BME280_temperature;BME280_humidity;BME280_pressure;Samples;Min_cycle;Max_cycle;Signal;HPM_P1;HPM_P2
2023/02/14 00:00:41;;;;;;;60.42;28.10;;;5.20;97.40;;;;;;4985789;28;20049;-71
2023/02/14 00:03:07;;;;;;;58.47;28.95;;;5.10;97.30;;;;;;4989534;28;20061;-72
2023/02/14 00:05:33;;;;;;;54.42;26.63;;;5.10;97.30;;;;;;4984759;28;20442;-72
2023/02/14 00:07:58;;;;;;;62.00;28.23;;;5.10;97.30;;;;;;4984334;28;20043;-72
2023/02/14 00:10:24;;;;;;;64.40;28.60;;;5.10;97.20;;;;;;4976484;28;20058;-72
2023/02/14 00:12:49;;;;;;;55.97;27.90;;;5.10;97.20;;;;;;4989892;28;20066;-72
2023/02/14 00:15:21;;;;;;;56.53;27.33;;;5.10;97.20;;;;;;4990841;28;20509;-72
2023/02/14 00:17:54;;;;;;;58.25;28.10;;;5.10;97.20;;;;;;4989904;28;20037;-72
2023/02/14 00:20:20;;;;;;;53.95;27.27;;;5.10;97.10;;;;;;4988087;28;20034;-73
2023/02/14 00:22:46;;;;;;;52.20;25.63;;;5.10;97.00;;;;;;4987936;28;20030;-71
2023/02/14 00:25:12;;;;;;;55.75;26.13;;;5.10;96.90;;;;;;4990683;28;20101;-72
2023/02/14 00:27:37;;;;;;;55.00;27.08;;;5.10;96.90;;;;;;4979190;28;20467;-72
2023/02/14 00:30:04;;;;;;;52.60;25.77;;;5.10;96.90;;;;;;4992075;28;20038;-72
2023/02/14 00:32:30;;;;;;;51.15;25.88;;;5.10;96.90;;;;;;4994613;28;20030;-72
2023/02/14 00:34:56;;;;;;;60.22;26.98;;;5.10;97.00;;;;;;4991454;28;20033;-71
2023/02/14 00:37:22;;;;;;;53.95;26.58;;;5.10;97.00;;;;;;4987062;28;20038;-73
2023/02/14 00:39:47;;;;;;;55.35;26.52;;;5.00;97.00;;;;;;4990240;28;20058;-72
2023/02/14 00:42:13;;;;;;;54.53;26.80;;;5.00;97.00;;;;;;4987576;28;20093;-71
2023/02/14 00:44:39;;;;;;;53.47;26.95;;;5.00;97.00;;;;;;4991780;28;20073;-72
2023/02/14 00:47:04;;;;;;;59.28;26.65;;;5.00;97.00;;;;;;4989133;28;20033;-71
2023/02/14 00:49:30;;;;;;;54.10;26.17;;;5.00;97.00;;;;;;4991640;28;20038;-71
2023/02/14 00:51:55;;;;;;;59.58;27.65;;;5.00;97.10;;;;;;4990938;28;20062;-71
2023/02/14 00:54:21;;;;;;;59.42;26.92;;;4.90;97.10;;;;;;4985726;28;20415;-73
2023/02/14 00:56:46;;;;;;;54.03;25.90;;;5.00;96.90;;;;;;4990521;28;20030;-71
2023/02/14 00:59:12;;;;;;;55.13;25.90;;;5.00;96.90;;;;;;4991557;28;20026;-72
2023/02/14 01:01:38;;;;;;;64.25;27.17;;;5.00;97.00;;;;;;4992985;28;20437;-71
2023/02/14 01:04:04;;;;;;;56.47;27.10;;;4.90;97.00;;;;;;4991368;28;20058;-71
2023/02/14 01:06:29;;;;;;;53.05;26.35;;;4.90;97.00;;;;;;4992420;28;20383;-72
2023/02/14 01:08:55;;;;;;;56.35;27.80;;;4.90;97.00;;;;;;4989783;28;20034;-71
2023/02/14 01:11:22;;;;;;;56.47;27.60;;;4.90;97.00;;;;;;4990481;28;20046;-73
2023/02/14 01:13:48;;;;;;;56.13;26.85;;;4.80;97.00;;;;;;4992965;28;20034;-72
2023/02/14 01:16:17;;;;;;;57.95;26.20;;;4.80;97.00;;;;;;4999223;28;20034;-72
2023/02/14 01:18:44;;;;;;;58.15;27.10;;;4.80;97.00;;;;;;4993509;28;20037;-72
2023/02/14 01:21:16;;;;;;;57.45;26.38;;;4.80;97.00;;;;;;4986487;28;20057;-72
2023/02/14 01:23:43;;;;;;;58.75;26.48;;;4.80;97.00;;;;;;4994362;28;20580;-72
2023/02/14 01:26:09;;;;;;;58.05;26.02;;;4.80;97.10;;;;;;4990432;28;20022;-72
2023/02/14 01:28:35;;;;;;;56.47;25.58;;;4.80;97.00;;;;;;4992508;28;20468;-72
2023/02/14 01:31:12;;;;;;;63.30;27.88;;;4.80;97.00;;;;;;4992970;28;20037;-72
2023/02/14 01:33:39;;;;;;;56.05;24.30;;;4.80;97.00;;;;;;4990852;28;20034;-71
2023/02/14 01:36:05;;;;;;;53.38;25.27;;;4.80;96.90;;;;;;4983408;28;20026;-72
2023/02/14 01:38:30;;;;;;;52.45;25.70;;;4.80;96.70;;;;;;4990729;28;20065;-72
2023/02/14 01:40:56;;;;;;;54.35;25.95;;;4.80;96.60;;;;;;4994156;28;20069;-72
2023/02/14 01:43:22;;;;;;;48.60;24.30;;;4.70;96.70;;;;;;4991321;28;20023;-72
2023/02/14 01:45:47;;;;;;;56.20;25.27;;;4.70;96.70;;;;;;4988790;28;20027;-74
2023/02/14 01:48:14;;;;;;;51.10;25.27;;;4.60;96.70;;;;;;4994868;28;20035;-71
2023/02/14 01:50:43;;;;;;;55.80;26.27;;;4.60;96.80;;;;;;4988955;28;20027;-72
2023/02/14 01:53:21;;;;;;;51.65;24.60;;;4.60;96.80;;;;;;4991281;28;20041;-72
2023/02/14 01:55:52;;;;;;;51.83;24.80;;;4.60;96.70;;;;;;4975858;28;20109;-72
2023/02/14 01:58:21;;;;;;;56.22;25.88;;;4.60;96.80;;;;;;4993076;28;20068;-71
2023/02/14 02:00:56;;;;;;;54.88;25.15;;;4.60;96.80;;;;;;4992025;28;20030;-71
2023/02/14 02:03:26;;;;;;;56.92;24.67;;;4.60;96.80;;;;;;4985518;28;20026;-71
2023/02/14 02:06:04;;;;;;;56.57;24.80;;;4.60;96.70;;;;;;4988616;28;20085;-72
2023/02/14 02:08:29;;;;;;;55.40;24.50;;;4.60;96.80;;;;;;4988710;28;20073;-71
2023/02/14 02:10:55;;;;;;;55.70;24.80;;;4.60;96.80;;;;;;4988255;28;20370;-71
2023/02/14 02:13:21;;;;;;;57.03;26.60;;;4.60;96.70;;;;;;4993230;28;20422;-71
2023/02/14 02:16:34;;;;;;;51.30;25.20;;;4.60;96.60;;;;;;4992347;28;20018;-71
2023/02/14 02:19:21;;;;;;;55.33;25.10;;;4.50;96.60;;;;;;4978585;28;20089;-72
2023/02/14 02:22:05;;;;;;;56.35;24.77;;;4.50;96.70;;;;;;4991927;28;20466;-71
2023/02/14 02:25:01;;;;;;;55.15;24.23;;;4.40;96.80;;;;;;4988951;28;20089;-72
2023/02/14 02:27:44;;;;;;;54.70;24.92;;;4.40;96.90;;;;;;4978863;28;20050;-73
2023/02/14 02:30:24;;;;;;;52.03;24.92;;;4.40;97.00;;;;;;4989097;28;20046;-71
2023/02/14 02:33:00;;;;;;;57.88;25.58;;;4.40;97.00;;;;;;4992957;28;20034;-72
2023/02/14 02:36:03;;;;;;;54.67;23.75;;;4.30;96.90;;;;;;4992833;28;20026;-71
2023/02/14 02:38:55;;;;;;;53.17;22.98;;;4.30;97.00;;;;;;4989903;28;20025;-72
2023/02/14 02:41:27;;;;;;;57.42;25.48;;;4.30;97.10;;;;;;4986373;28;20066;-72
2023/02/14 02:44:08;;;;;;;57.95;25.95;;;4.40;97.10;;;;;;4994790;28;20517;-71
2023/02/14 02:46:48;;;;;;;60.42;26.35;;;4.30;97.00;;;;;;4990734;28;20033;-71
2023/02/14 02:53:01;;;;;;;58.17;23.97;;;4.30;97.00;;;;;;4991450;28;20482;-72
2023/02/14 02:55:11;;;;;;;54.08;23.98;;;4.30;97.20;;;;;;4985481;28;20029;-72
2023/02/14 02:57:41;;;;;;;60.10;23.38;;;4.30;97.30;;;;;;4990800;28;20113;-71
2023/02/14 03:00:10;;;;;;;63.13;26.50;;;4.30;97.30;;;;;;4988074;28;20022;-72
2023/02/14 03:05:28;;;;;;;60.53;26.38;;;4.30;97.40;;;;;;4988829;28;20171;-72
2023/02/14 03:07:54;;;;;;;52.92;24.67;;;4.30;97.50;;;;;;4989575;28;20030;-72
2023/02/14 03:10:22;;;;;;;56.20;24.52;;;4.30;97.40;;;;;;4981245;28;20039;-73
2023/02/14 03:13:09;;;;;;;52.92;25.60;;;4.30;97.40;;;;;;4990566;28;20037;-71
2023/02/14 03:15:51;;;;;;;56.85;25.30;;;4.30;97.50;;;;;;4986534;28;20023;-71
2023/02/14 03:21:51;;;;;;;52.72;24.17;;;4.20;97.60;;;;;;4981691;28;20189;-72
2023/02/14 03:24:34;;;;;;;54.53;24.15;;;4.20;97.60;;;;;;4982352;28;20125;-72
2023/02/14 03:27:10;;;;;;;56.53;24.80;;;4.20;97.70;;;;;;4989286;28;20510;-71
2023/02/14 03:30:16;;;;;;;58.85;24.50;;;4.20;97.80;;;;;;4990485;28;20096;-72
2023/02/14 03:32:47;;;;;;;60.05;24.45;;;4.20;97.80;;;;;;4979400;28;20069;-72
2023/02/14 03:35:39;;;;;;;59.15;25.45;;;4.10;97.80;;;;;;4989661;28;20077;-72
2023/02/14 03:38:20;;;;;;;54.80;24.90;;;4.10;97.90;;;;;;4984959;28;20345;-72
2023/02/14 03:40:48;;;;;;;;;;;4.00;97.90;;;;;;4991443;28;20121;-73
2023/02/14 03:43:30;;;;;;;53.40;22.10;;;3.90;97.90;;;;;;4989976;28;19906;-71
2023/02/14 03:46:18;;;;;;;61.47;25.27;;;3.90;98.00;;;;;;4989278;28;20033;-71
2023/02/14 03:48:45;;;;;;;55.60;22.67;;;3.80;98.10;;;;;;4996156;28;20058;-71
2023/02/14 03:51:14;;;;;;;54.67;22.25;;;3.70;98.00;;;;;;4987385;28;20022;-72
2023/02/14 03:53:44;;;;;;;63.05;25.08;;;3.60;98.00;;;;;;4992813;28;20022;-71
2023/02/14 03:56:43;;;;;;;64.10;25.92;;;3.60;98.20;;;;;;4985813;28;20014;-72
2023/02/14 03:59:22;;;;;;;60.90;24.08;;;3.60;98.30;;;;;;4984780;28;20044;-72
2023/02/14 04:02:10;;;;;;;53.70;23.55;;;3.40;98.30;;;;;;4990261;28;20041;-72
2023/02/14 04:04:41;;;;;;;57.38;24.13;;;3.30;98.40;;;;;;4987578;28;20025;-71
2023/02/14 04:07:12;;;;;;;63.15;25.25;;;3.30;98.40;;;;;;4987715;28;20050;-72
2023/02/14 04:09:37;;;;;;;68.13;24.40;;;3.20;98.50;;;;;;4981864;28;20438;-71
2023/02/14 04:12:03;;;;;;;63.70;24.70;;;3.30;98.80;;;;;;4982120;28;20041;-72
2023/02/14 04:14:29;;;;;;;58.28;25.25;;;3.30;98.80;;;;;;4991197;28;20030;-72
2023/02/14 04:19:38;;;;;;;71.32;26.20;;;3.20;98.80;;;;;;4988215;28;20025;-72
2023/02/14 04:22:04;;;;;;;68.25;26.05;;;3.30;99.00;;;;;;4991578;28;20030;-72
2023/02/14 04:24:29;;;;;;;71.85;25.90;;;3.30;99.00;;;;;;4988827;28;20027;-71
2023/02/14 04:27:10;;;;;;;71.03;25.83;;;3.30;99.10;;;;;;5003492;28;20062;-72
2023/02/14 04:29:40;;;;;;;70.30;25.92;;;3.30;99.00;;;;;;5007584;28;20033;-72
2023/02/14 04:32:09;;;;;;;71.15;26.73;;;3.30;99.10;;;;;;4994909;28;20037;-73
2023/02/14 04:34:35;;;;;;;72.18;26.75;;;3.40;99.20;;;;;;4993898;28;20038;-73
2023/02/14 04:37:00;;;;;;;77.07;27.05;;;3.40;99.20;;;;;;4991341;28;20375;-71
2023/02/14 04:39:26;;;;;;;61.72;24.27;;;3.50;99.30;;;;;;4993153;28;20030;-72
2023/02/14 04:41:51;;;;;;;69.47;26.27;;;3.50;99.20;;;;;;4995711;28;20046;-72
2023/02/14 04:44:17;;;;;;;72.38;25.83;;;3.50;99.10;;;;;;4996688;28;20554;-71
2023/02/14 04:46:43;;;;;;;75.72;25.17;;;3.50;99.20;;;;;;4999203;28;20077;-71
2023/02/14 04:49:08;;;;;;;69.70;25.60;;;3.50;99.30;;;;;;4993833;28;20038;-72
2023/02/14 04:51:34;;;;;;;71.13;26.23;;;3.60;99.30;;;;;;5001952;28;20030;-72
2023/02/14 04:53:59;;;;;;;80.45;25.90;;;3.70;99.40;;;;;;4997228;28;20562;-71
2023/02/14 04:56:25;;;;;;;72.20;26.48;;;3.70;99.30;;;;;;5000954;28;20038;-71
2023/02/14 04:58:51;;;;;;;82.13;26.48;;;3.60;99.10;;;;;;4991222;28;20035;-72
2023/02/14 05:01:17;;;;;;;70.28;26.17;;;3.60;99.20;;;;;;4992613;28;20485;-72
2023/02/14 05:03:43;;;;;;;69.03;25.10;;;3.70;99.20;;;;;;4995688;28;20462;-71
2023/02/14 05:06:08;;;;;;;66.13;24.80;;;3.70;99.30;;;;;;4990752;28;20344;-71
2023/02/14 05:08:34;;;;;;;64.55;24.85;;;3.80;99.20;;;;;;4993780;28;20044;-71
2023/02/14 05:10:59;;;;;;;69.38;25.08;;;3.80;99.20;;;;;;4990936;28;20514;-73
2023/02/14 05:13:25;;;;;;;69.60;25.33;;;3.80;99.20;;;;;;4990054;28;20098;-72
2023/02/14 05:15:50;;;;;;;63.53;24.10;;;3.80;99.10;;;;;;4989715;28;20344;-72
2023/02/14 05:18:16;;;;;;;55.50;23.08;;;3.80;99.10;;;;;;4992910;28;20038;-72
2023/02/14 05:20:41;;;;;;;65.72;24.65;;;3.80;99.10;;;;;;4992179;28;20501;-73
2023/02/14 05:23:12;;;;;;;60.33;23.67;;;3.80;99.10;;;;;;4988986;28;20109;-72
2023/02/14 05:25:41;;;;;;;62.72;21.85;;;3.80;99.20;;;;;;4990499;28;20101;-72
2023/02/14 05:28:07;;;;;;;55.15;22.95;;;3.90;99.20;;;;;;4990912;28;20042;-72
2023/02/14 05:30:32;;;;;;;53.15;22.85;;;3.90;99.20;;;;;;4991028;28;20362;-67
2023/02/14 05:32:57;;;;;;;56.45;23.73;;;3.90;99.10;;;;;;4992741;28;20096;-67
2023/02/14 05:35:23;;;;;;;54.92;22.80;;;3.90;99.20;;;;;;4991128;28;20487;-66
2023/02/14 05:37:49;;;;;;;56.28;22.35;;;3.90;99.20;;;;;;4990357;28;20033;-66
2023/02/14 05:40:15;;;;;;;59.20;22.67;;;3.90;99.20;;;;;;4997255;28;20032;-66
2023/02/14 05:42:41;;;;;;;53.17;22.00;;;4.00;99.20;;;;;;4993654;28;20026;-66
2023/02/14 05:45:07;;;;;;;54.35;22.60;;;4.00;99.10;;;;;;4991772;28;20107;-66
2023/02/14 05:47:32;;;;;;;46.58;21.02;;;4.00;99.10;;;;;;4992859;28;20218;-66
2023/02/14 05:49:58;;;;;;;54.90;22.25;;;4.00;99.20;;;;;;4991030;28;20129;-66
2023/02/14 05:52:24;;;;;;;55.08;23.73;;;4.00;99.10;;;;;;4991211;28;20471;-68
2023/02/14 05:54:50;;;;;;;49.38;21.90;;;4.00;99.00;;;;;;4989158;28;20073;-66
2023/02/14 05:57:15;;;;;;;50.83;21.13;;;4.00;99.10;;;;;;4987663;28;20031;-67
2023/02/14 05:59:41;;;;;;;49.30;20.70;;;3.90;99.00;;;;;;4986146;28;20035;-66
2023/02/14 06:02:06;;;;;;;54.67;22.38;;;3.90;99.10;;;;;;4988071;28;20153;-67
2023/02/14 06:04:32;;;;;;;45.60;20.60;;;3.70;98.90;;;;;;4995140;28;20038;-67
2023/02/14 06:06:57;;;;;;;47.17;20.33;;;3.60;98.90;;;;;;4988530;28;20045;-66
2023/02/14 06:09:23;;;;;;;49.55;21.20;;;3.50;98.90;;;;;;4990358;28;20104;-66
2023/02/14 06:11:49;;;;;;;48.97;19.73;;;3.30;98.80;;;;;;4983112;28;20105;-67
2023/02/14 06:14:15;;;;;;;49.22;20.70;;;3.20;98.90;;;;;;4988607;28;20044;-66
2023/02/14 06:16:40;;;;;;;45.20;20.08;;;3.10;99.00;;;;;;4984195;28;20414;-66
2023/02/14 06:19:06;;;;;;;45.63;19.83;;;2.90;99.00;;;;;;4986532;28;20117;-65
2023/02/14 06:21:32;;;;;;;45.67;19.95;;;2.80;99.10;;;;;;5006800;28;20030;-66
2023/02/14 06:23:57;;;;;;;43.05;19.25;;;2.60;99.00;;;;;;4990081;28;20038;-65
2023/02/14 06:26:26;;;;;;;45.85;19.98;;;2.50;99.20;;;;;;4983323;28;20034;-67
2023/02/14 06:28:53;;;;;;;45.17;18.98;;;2.40;99.20;;;;;;4993627;28;20117;-66
2023/02/14 06:31:18;;;;;;;47.13;18.75;;;2.30;99.30;;;;;;4987694;28;20383;-65
2023/02/14 06:33:44;;;;;;;48.80;19.05;;;2.30;99.50;;;;;;5006332;28;20033;-66
2023/02/14 06:36:10;;;;;;;46.92;20.10;;;2.10;99.30;;;;;;5004923;28;20081;-66
2023/02/14 06:38:35;;;;;;;52.33;19.92;;;2.10;99.40;;;;;;4986409;28;20030;-66
2023/02/14 06:41:04;;;;;;;49.80;20.27;;;2.10;99.40;;;;;;4989770;28;20110;-67
2023/02/14 06:43:30;;;;;;;48.38;19.63;;;2.00;99.50;;;;;;4987202;28;20036;-67
2023/02/14 06:45:55;;;;;;;52.63;20.45;;;2.00;99.70;;;;;;4987780;28;20034;-65
2023/02/14 06:48:21;;;;;;;61.85;21.63;;;2.10;99.80;;;;;;4990093;28;20459;-66
2023/02/14 06:50:46;;;;;;;59.22;21.70;;;2.00;99.60;;;;;;5004143;28;20050;-65
2023/02/14 06:53:12;;;;;;;65.88;20.27;;;2.00;99.80;;;;;;5003040;28;20498;-65
2023/02/14 06:55:37;;;;;;;53.80;20.98;;;1.90;99.80;;;;;;4986335;28;20030;-66
2023/02/14 06:58:03;;;;;;;57.67;20.73;;;1.90;99.90;;;;;;4984681;28;20172;-65
2023/02/14 07:00:28;;;;;;;61.10;20.08;;;1.90;99.90;;;;;;4993347;28;20092;-65
2023/02/14 07:02:54;;;;;;;65.80;20.98;;;1.90;99.90;;;;;;4992243;28;20037;-65
2023/02/14 07:05:20;;;;;;;64.65;22.38;;;1.80;99.90;;;;;;4992368;28;20112;-66
2023/02/14 07:07:46;;;;;;;62.35;21.95;;;1.80;99.90;;;;;;4991905;28;20023;-65
2023/02/14 07:10:12;;;;;;;67.70;21.35;;;1.80;99.90;;;;;;4986548;28;20175;-66
2023/02/14 07:12:38;;;;;;;65.35;20.88;;;1.70;99.90;;;;;;4985581;28;20057;-66
2023/02/14 07:15:06;;;;;;;70.53;20.65;;;1.70;99.90;;;;;;4980772;28;20047;-65
2023/02/14 07:17:31;;;;;;;62.65;21.95;;;1.70;99.90;;;;;;4983868;28;20031;-66
2023/02/14 07:19:57;;;;;;;72.93;22.05;;;1.80;99.90;;;;;;4979762;28;20035;-65
2023/02/14 07:22:22;;;;;;;87.65;24.70;;;1.90;99.90;;;;;;4985212;28;20486;-65
2023/02/14 07:24:48;;;;;;;76.05;22.00;;;1.90;99.90;;;;;;4990824;28;20116;-66
2023/02/14 07:27:13;;;;;;;79.50;23.30;;;1.80;99.90;;;;;;4984793;28;20053;-65
2023/02/14 07:29:39;;;;;;;76.97;22.77;;;1.90;99.90;;;;;;4987170;28;20042;-65
2023/02/14 07:32:04;;;;;;;77.32;22.60;;;1.90;99.90;;;;;;4989299;28;20420;-65
2023/02/14 07:34:30;;;;;;;86.63;22.83;;;1.90;99.90;;;;;;4981862;28;20041;-65
2023/02/14 07:36:55;;;;;;;86.07;23.77;;;2.10;99.90;;;;;;4982971;28;20023;-67
2023/02/14 07:39:21;;;;;;;99.40;24.10;;;2.10;99.90;;;;;;4983528;28;20125;-66
2023/02/14 07:41:46;;;;;;;90.35;23.63;;;2.20;99.90;;;;;;4982837;28;20356;-66
2023/02/14 07:44:11;;;;;;;92.00;24.15;;;2.30;99.90;;;;;;4982640;28;20505;-66
2023/02/14 07:46:37;;;;;;;95.78;23.77;;;2.30;99.90;;;;;;4989883;28;20491;-65
2023/02/14 07:49:03;;;;;;;94.75;23.75;;;2.30;99.90;;;;;;4983339;28;20030;-67
2023/02/14 07:51:28;;;;;;;98.13;24.58;;;2.50;99.90;;;;;;4984756;28;20023;-65
2023/02/14 07:53:53;;;;;;;101.47;25.73;;;2.60;99.90;;;;;;4983293;28;20528;-66
2023/02/14 07:56:19;;;;;;;92.03;24.05;;;2.80;99.90;;;;;;4980942;28;20034;-66
2023/02/14 07:58:45;;;;;;;120.95;26.23;;;3.00;99.90;;;;;;4983254;28;20310;-66
2023/02/14 08:01:11;;;;;;;114.03;25.67;;;3.40;99.90;;;;;;4993541;28;20063;-66
2023/02/14 08:03:37;;;;;;;117.47;26.75;;;3.60;99.90;;;;;;4994269;28;20102;-66
2023/02/14 08:06:02;;;;;;;121.40;27.42;;;3.90;99.90;;;;;;4984416;28;20027;-66
2023/02/14 08:08:30;;;;;;;120.65;27.73;;;4.10;99.90;;;;;;4985957;28;20043;-65
2023/02/14 08:10:56;;;;;;;124.50;27.45;;;4.10;99.90;;;;;;4980161;28;20098;-66
2023/02/14 08:13:21;;;;;;;123.10;27.65;;;4.10;99.90;;;;;;4983491;28;20502;-67
2023/02/14 08:18:35;;;;;;;110.65;26.85;;;4.40;99.90;;;;;;4984861;28;20061;-66
2023/02/14 08:21:01;;;;;;;107.22;27.33;;;4.60;99.90;;;;;;4993585;28;20034;-67
2023/02/14 08:23:27;;;;;;;117.72;27.50;;;4.70;99.90;;;;;;4989796;28;20077;-66
2023/02/14 08:25:52;;;;;;;114.93;27.67;;;4.70;99.90;;;;;;4983982;28;20487;-66
2023/02/14 08:28:18;;;;;;;113.60;28.02;;;4.80;99.90;;;;;;4983824;28;20141;-67
2023/02/14 08:30:44;;;;;;;107.90;28.88;;;4.80;99.90;;;;;;4989281;28;20065;-66
2023/02/14 08:33:10;;;;;;;104.90;25.98;;;4.70;99.90;;;;;;4988059;28;20034;-65
2023/02/14 08:35:36;;;;;;;102.72;28.48;;;4.70;99.90;;;;;;4988473;28;20030;-65
2023/02/14 08:38:01;;;;;;;100.45;27.27;;;4.90;99.80;;;;;;4988277;28;20030;-66
2023/02/14 08:40:27;;;;;;;97.28;27.25;;;4.90;99.40;;;;;;4977886;28;20034;-66
2023/02/14 08:42:53;;;;;;;105.00;28.02;;;5.00;99.10;;;;;;4979451;28;20180;-65
2023/02/14 08:45:19;;;;;;;94.80;28.35;;;5.20;98.40;;;;;;4990476;28;20037;-66
2023/02/14 08:47:45;;;;;;;101.57;30.17;;;5.50;98.60;;;;;;4990432;28;20034;-65
2023/02/14 08:50:14;;;;;;;97.03;28.48;;;5.70;98.30;;;;;;4989507;28;20050;-67
2023/02/14 08:52:42;;;;;;;86.05;27.92;;;5.80;97.70;;;;;;4987027;28;20129;-66
2023/02/14 08:55:08;;;;;;;81.30;27.30;;;5.70;95.80;;;;;;4996827;28;20052;-66
2023/02/14 08:57:33;;;;;;;64.43;25.70;;;5.80;96.30;;;;;;4985767;28;20030;-65
2023/02/14 08:59:59;;;;;;;59.55;25.30;;;6.10;96.20;;;;;;4988654;28;20506;-66
2023/02/14 09:02:24;;;;;;;63.13;24.13;;;6.10;95.60;;;;;;4990697;28;20038;-65
2023/02/14 09:04:49;;;;;;;50.67;23.90;;;6.00;93.50;;;;;;4988771;28;20038;-65
2023/02/14 09:07:15;;;;;;;50.50;23.08;;;6.20;94.60;;;;;;4987360;28;20491;-66
2023/02/14 09:09:40;;;;;;;44.05;22.15;;;6.30;94.00;;;;;;4986560;28;20051;-65
2023/02/14 09:12:08;;;;;;;39.80;20.88;;;6.30;93.20;;;;;;4991195;28;20033;-65
2023/02/14 09:14:35;;;;;;;35.45;19.55;;;6.40;93.60;;;;;;4992780;28;20038;-65
2023/02/14 09:17:04;;;;;;;33.55;18.63;;;6.40;92.70;;;;;;4995603;28;20491;-65
2023/02/14 09:19:33;;;;;;;32.00;18.80;;;6.50;93.30;;;;;;4996075;28;20037;-65
2023/02/14 09:21:59;;;;;;;32.72;18.70;;;6.60;93.00;;;;;;4988719;28;20465;-65
2023/02/14 09:24:26;;;;;;;32.47;18.35;;;6.70;93.30;;;;;;4988475;28;20023;-65
2023/02/14 09:26:52;;;;;;;36.13;18.33;;;6.80;92.60;;;;;;4980635;28;20234;-66
2023/02/14 09:29:18;;;;;;;31.20;17.60;;;7.00;92.80;;;;;;4989442;28;20450;-66
2023/02/14 09:31:43;;;;;;;28.92;17.45;;;6.90;92.30;;;;;;4991914;28;20042;-65
2023/02/14 09:34:09;;;;;;;31.95;17.23;;;7.10;92.50;;;;;;4983887;28;20046;-65
2023/02/14 09:36:35;;;;;;;28.35;16.48;;;7.30;92.40;;;;;;4987725;28;20030;-66
2023/02/14 09:39:01;;;;;;;26.92;16.25;;;7.10;91.10;;;;;;4999844;28;20034;-65
2023/02/14 09:41:29;;;;;;;29.08;17.00;;;7.20;91.60;;;;;;4995729;28;20042;-66
2023/02/14 09:43:59;;;;;;;29.35;16.95;;;7.40;91.20;;;;;;4986507;28;20149;-66
2023/02/14 09:46:26;;;;;;;28.33;16.48;;;7.60;90.30;;;;;;4991021;28;20030;-66
2023/02/14 09:48:53;;;;;;;29.15;16.35;;;7.60;90.50;;;;;;4995327;28;20034;-66
2023/02/14 09:51:24;;;;;;;27.20;16.60;;;7.80;90.60;;;;;;4990626;28;20038;-65
2023/02/14 09:54:11;;;;;;;25.20;16.05;;;8.00;90.20;;;;;;4992642;28;20142;-65
2023/02/14 09:57:07;;;;;;;26.17;15.98;;;7.80;89.20;;;;;;4987322;28;20522;-65
2023/02/14 09:59:41;;;;;;;30.20;16.83;;;7.70;89.10;;;;;;4990921;28;20038;-65
2023/02/14 10:02:34;;;;;;;26.30;16.50;;;7.90;89.60;;;;;;4998424;28;20102;-67
2023/02/14 10:05:16;;;;;;;27.63;14.80;;;7.90;88.30;;;;;;4993855;28;20023;-65
2023/02/14 10:07:54;;;;;;;26.73;15.73;;;7.80;89.20;;;;;;4987152;28;20030;-66
2023/02/14 10:10:41;;;;;;;25.58;15.57;;;7.60;89.40;;;;;;4991057;28;20039;-67
2023/02/14 10:13:12;;;;;;;27.17;15.60;;;8.10;90.20;;;;;;4999064;28;20096;-65
2023/02/14 10:15:42;;;;;;;24.48;15.68;;;8.30;89.60;;;;;;4997252;28;20033;-65
2023/02/14 10:18:21;;;;;;;28.60;16.25;;;8.30;88.40;;;;;;5013212;28;20463;-65
2023/02/14 10:21:12;;;;;;;23.40;14.68;;;8.50;89.20;;;;;;4992073;28;20455;-66
2023/02/14 10:24:03;;;;;;;26.25;14.23;;;8.40;87.20;;;;;;4997255;28;20033;-65
2023/02/14 10:26:38;;;;;;;25.10;14.63;;;8.70;88.20;;;;;;4988687;28;20471;-67
2023/02/14 10:29:11;;;;;;;27.27;17.05;;;9.00;88.00;;;;;;4990574;28;20038;-65
2023/02/14 10:31:54;;;;;;;24.33;14.50;;;8.90;87.40;;;;;;4988575;28;20117;-65
2023/02/14 10:34:38;;;;;;;23.27;14.63;;;8.80;86.50;;;;;;5004249;28;20053;-66
2023/02/14 10:37:29;;;;;;;25.60;15.07;;;9.10;87.70;;;;;;4994590;28;20108;-66
2023/02/14 10:40:07;;;;;;;;;;;9.20;86.80;;;;;;4989707;28;20170;-68
2023/02/14 10:42:59;;;;;;;23.83;13.93;;;9.30;87.20;;;;;;4989182;28;19948;-66
2023/02/14 10:45:59;;;;;;;25.30;14.73;;;9.30;86.70;;;;;;4985281;28;20033;-66
2023/02/14 10:48:47;;;;;;;23.75;14.70;;;9.50;86.40;;;;;;4993497;28;20046;-66
2023/02/14 10:51:29;;;;;;;23.70;14.80;;;9.60;86.00;;;;;;4980485;28;20030;-65
2023/02/14 10:54:15;;;;;;;22.90;14.52;;;9.60;85.80;;;;;;4990448;28;20117;-66
2023/02/14 10:56:48;;;;;;;20.77;13.38;;;9.60;85.10;;;;;;4981830;28;20030;-67
2023/02/14 10:59:26;;;;;;;22.00;14.43;;;9.50;86.10;;;;;;4990209;28;20450;-66
2023/02/14 11:01:53;;;;;;;24.15;14.80;;;9.70;86.40;;;;;;4994875;28;20538;-66
2023/02/14 11:04:22;;;;;;;23.10;13.60;;;9.90;85.60;;;;;;4991077;28;20472;-65
2023/02/14 11:06:49;;;;;;;23.02;14.93;;;9.90;85.10;;;;;;4989623;28;20098;-65
2023/02/14 11:09:15;;;;;;;23.08;13.70;;;10.00;85.40;;;;;;5000275;28;20026;-66
2023/02/14 11:11:51;;;;;;;23.00;14.00;;;10.10;85.50;;;;;;4984820;28;20026;-66
2023/02/14 11:14:35;;;;;;;23.58;14.00;;;10.20;84.20;;;;;;4982788;28;20027;-66
2023/02/14 11:17:30;;;;;;;21.75;13.68;;;10.30;83.80;;;;;;4990099;28;20071;-66
2023/02/14 11:20:01;;;;;;;25.65;13.93;;;10.40;83.60;;;;;;4992384;28;20030;-65
2023/02/14 11:22:34;;;;;;;23.77;14.85;;;10.40;84.20;;;;;;4991412;28;20034;-67
2023/02/14 11:25:19;;;;;;;22.60;13.65;;;10.30;83.00;;;;;;4984715;28;20054;-66
2023/02/14 11:27:48;;;;;;;21.20;13.20;;;10.60;83.40;;;;;;4982577;28;20568;-66
2023/02/14 11:30:34;;;;;;;19.10;13.00;;;10.70;83.30;;;;;;5002359;28;20470;-66
2023/02/14 11:33:00;;;;;;;18.55;12.18;;;10.70;81.60;;;;;;4991191;28;20110;-66
2023/02/14 11:35:33;;;;;;;19.50;12.75;;;11.00;82.70;;;;;;4990991;28;20070;-66
2023/02/14 11:38:03;;;;;;;17.35;12.27;;;10.80;80.30;;;;;;4990417;28;20072;-67
2023/02/14 11:40:36;;;;;;;22.65;12.63;;;11.00;81.10;;;;;;4998555;28;20062;-67
2023/02/14 11:43:11;;;;;;;18.88;12.30;;;11.20;81.20;;;;;;4985273;28;20064;-66
2023/02/14 11:45:39;;;;;;;19.13;12.15;;;11.40;80.80;;;;;;4990972;28;20029;-66
2023/02/14 11:48:26;;;;;;;17.80;11.95;;;11.40;80.00;;;;;;5001051;28;20119;-67
2023/02/14 11:51:15;;;;;;;16.17;11.18;;;11.70;81.00;;;;;;4992592;28;20045;-67
2023/02/14 11:53:49;;;;;;;18.50;11.82;;;11.80;77.90;;;;;;4990372;28;20479;-67
2023/02/14 11:56:16;;;;;;;16.88;11.63;;;12.00;78.70;;;;;;4989235;28;20474;-67
2023/02/14 11:58:49;;;;;;;15.25;11.07;;;12.00;78.60;;;;;;4989249;28;20034;-67
2023/02/14 12:01:28;;;;;;;17.95;11.93;;;12.50;79.30;;;;;;4992799;28;20038;-66
2023/02/14 12:03:57;;;;;;;16.50;11.43;;;12.60;76.90;;;;;;4993309;28;20475;-67
2023/02/14 12:06:34;;;;;;;19.42;11.20;;;12.70;75.90;;;;;;4991379;28;20045;-67
2023/02/14 12:09:28;;;;;;;15.43;11.18;;;12.90;75.70;;;;;;4996375;28;20046;-66
2023/02/14 12:11:58;;;;;;;18.67;11.85;;;12.60;76.60;;;;;;4986507;28;20078;-67
2023/02/14 12:14:29;;;;;;;16.27;11.63;;;12.50;74.90;;;;;;4983463;28;20387;-67
2023/02/14 12:17:01;;;;;;;16.50;11.25;;;12.90;77.60;;;;;;4987989;28;20125;-67
2023/02/14 12:19:41;;;;;;;16.52;11.77;;;12.80;75.00;;;;;;4991277;28;20043;-66
2023/02/14 12:22:13;;;;;;;16.50;11.73;;;12.70;76.00;;;;;;4990922;28;20375;-67
2023/02/14 12:24:49;;;;;;;16.92;11.15;;;12.90;74.60;;;;;;4996369;28;20574;-66
2023/02/14 12:27:33;;;;;;;18.63;11.68;;;12.90;74.70;;;;;;4988354;28;20058;-67
2023/02/14 12:30:10;;;;;;;15.70;11.63;;;13.10;74.50;;;;;;4988145;28;20076;-67
2023/02/14 12:32:43;;;;;;;15.60;10.93;;;13.20;73.80;;;;;;4994595;28;20042;-66
2023/02/14 12:35:44;;;;;;;17.23;11.73;;;13.70;73.70;;;;;;4988317;28;20030;-67
2023/02/14 12:38:26;;;;;;;16.38;10.93;;;14.10;71.90;;;;;;4989735;28;20034;-66
2023/02/14 12:41:15;;;;;;;17.25;11.30;;;14.30;72.90;;;;;;4993267;28;20035;-68
2023/02/14 12:43:51;;;;;;;13.65;9.85;;;14.50;71.90;;;;;;4982066;28;20041;-67
2023/02/14 12:46:35;;;;;;;15.60;11.07;;;14.40;69.50;;;;;;4994996;28;20036;-67
2023/02/14 12:49:27;;;;;;;17.45;10.90;;;14.80;71.50;;;;;;4989645;28;20511;-67
2023/02/14 12:52:20;;;;;;;17.23;10.85;;;14.70;69.80;;;;;;4999965;28;20455;-66
2023/02/14 12:55:13;;;;;;;14.23;10.25;;;15.00;70.90;;;;;;4990173;28;20039;-67
2023/02/14 12:58:04;;;;;;;13.02;9.82;;;15.10;69.00;;;;;;4981413;28;20474;-68
2023/02/14 13:00:47;;;;;;;;;;;15.00;69.80;;;;;;4985820;28;20051;-67
2023/02/14 13:03:34;;;;;;;15.93;10.07;;;15.20;66.90;;;;;;4992644;28;19914;-67
2023/02/14 13:06:16;;;;;;;13.93;10.40;;;15.30;69.30;;;;;;5004407;28;20112;-68
2023/02/14 13:09:11;;;;;;;13.82;10.43;;;15.40;67.00;;;;;;4988332;28;20034;-68
2023/02/14 13:11:59;;;;;;;13.15;9.90;;;15.70;67.50;;;;;;4984173;28;20059;-67